createdAt,value
2022-12-14T00:04:55.836Z,26.20
2022-12-14T00:09:57.367Z,25.98
2022-12-14T00:14:58.911Z,18.83
2022-12-14T00:20:00.452Z,24.33
2022-12-14T00:25:02.628Z,20.98
2022-12-14T00:30:04.572Z,17.95
2022-12-14T00:35:07.654Z,16.95
2022-12-14T00:40:10.224Z,17.00
2022-12-14T00:45:14.174Z,16.17
2022-12-14T00:50:15.756Z,15.63
2022-12-14T00:55:17.290Z,16.75
2022-12-14T01:00:18.922Z,17.17
2022-12-14T01:05:20.536Z,15.55
2022-12-14T01:10:22.475Z,16.00
2022-12-14T01:15:24.139Z,16.65
2022-12-14T01:20:25.668Z,16.63
2022-12-14T01:25:27.239Z,16.38
2022-12-14T01:30:28.982Z,17.20
2022-12-14T01:35:30.524Z,17.50
2022-12-14T01:40:32.119Z,17.08
2022-12-14T01:45:33.650Z,16.83
2022-12-14T01:50:40.120Z,18.30
2022-12-14T01:55:50.501Z,17.70
2022-12-14T02:00:58.196Z,16.92
2022-12-14T02:06:14.393Z,17.95
2022-12-14T02:11:35.940Z,17.65
2022-12-14T02:16:38.513Z,18.38
2022-12-14T02:22:09.986Z,17.95
2022-12-14T02:27:11.533Z,18.95
2022-12-14T02:32:34.584Z,17.95
2022-12-14T02:37:57.193Z,17.30
2022-12-14T02:43:04.966Z,18.63
2022-12-14T02:48:37.240Z,17.38
2022-12-14T02:54:02.473Z,18.02
2022-12-14T02:59:07.874Z,18.67
2022-12-14T03:04:09.430Z,17.63
2022-12-14T03:09:17.522Z,17.50
2022-12-14T03:14:28.937Z,18.05
2022-12-14T03:19:36.361Z,17.48
2022-12-14T03:24:43.040Z,16.65
2022-12-14T03:29:52.751Z,19.92
2022-12-14T03:35:33.006Z,18.52
2022-12-14T03:40:46.182Z,19.38
2022-12-14T03:46:00.656Z,24.42
2022-12-14T03:51:13.802Z,19.92
2022-12-14T03:56:28.869Z,18.52
2022-12-14T04:02:02.471Z,16.50
2022-12-14T04:07:14.685Z,17.95
2022-12-14T04:12:48.021Z,17.90
2022-12-14T04:18:14.627Z,16.45
2022-12-14T04:23:47.636Z,16.45
2022-12-14T04:29:18.615Z,15.63
2022-12-14T04:34:26.196Z,17.58
2022-12-14T04:39:35.996Z,18.05
2022-12-14T04:44:42.590Z,17.63
2022-12-14T04:49:50.272Z,19.45
2022-12-14T04:55:10.107Z,18.83
2022-12-14T05:00:12.982Z,18.20
2022-12-14T05:05:25.858Z,19.23
2022-12-14T05:10:46.232Z,19.60
2022-12-14T05:15:57.183Z,18.88
2022-12-14T05:20:58.740Z,18.63
2022-12-14T05:26:00.271Z,18.70
2022-12-14T05:31:03.991Z,18.83
2022-12-14T05:36:05.928Z,18.02
2022-12-14T05:41:07.522Z,19.85
2022-12-14T05:46:11.630Z,18.58
2022-12-14T05:51:13.764Z,20.75
2022-12-14T05:56:15.567Z,19.63
2022-12-14T06:01:19.610Z,21.85
2022-12-14T06:06:21.570Z,22.25
2022-12-14T06:11:24.354Z,22.80
2022-12-14T06:16:26.678Z,21.63
2022-12-14T06:21:33.352Z,23.08
2022-12-14T06:32:02.059Z,24.88
2022-12-14T06:37:03.698Z,22.45
2022-12-14T06:42:06.267Z,22.17
2022-12-14T06:47:07.799Z,21.70
2022-12-14T06:52:10.344Z,24.25
2022-12-14T06:57:11.993Z,24.25
2022-12-14T07:02:13.718Z,23.25
2022-12-14T07:07:15.426Z,25.40
2022-12-14T07:12:16.959Z,24.70
2022-12-14T07:17:18.500Z,24.75
2022-12-14T07:22:20.437Z,24.85
2022-12-14T07:27:24.108Z,27.38
2022-12-14T07:32:26.056Z,26.17
2022-12-14T07:37:27.634Z,25.60
2022-12-14T07:42:29.251Z,23.80
2022-12-14T07:47:34.698Z,24.95
2022-12-14T07:52:37.663Z,23.25
2022-12-14T07:57:39.372Z,24.02
2022-12-14T08:02:41.692Z,25.50
2022-12-14T08:07:43.699Z,23.50
2022-12-14T08:12:45.459Z,24.30
2022-12-14T08:17:47.051Z,23.52
2022-12-14T08:22:51.292Z,23.55
2022-12-14T08:27:53.166Z,22.88
2022-12-14T08:32:55.833Z,22.98
2022-12-14T08:37:57.455Z,24.00
2022-12-14T08:42:59.326Z,24.13
2022-12-14T08:48:01.614Z,26.05
2022-12-14T08:53:03.215Z,24.40
2022-12-14T08:58:04.773Z,25.65
2022-12-14T09:03:06.767Z,25.77
2022-12-14T09:08:09.165Z,25.33
2022-12-14T09:13:15.241Z,27.00
2022-12-14T09:18:16.796Z,25.67
2022-12-14T09:23:18.356Z,27.90
2022-12-14T09:28:19.969Z,29.58
2022-12-14T09:33:21.537Z,31.63
2022-12-14T09:38:27.236Z,30.30
2022-12-14T09:43:43.601Z,29.50
2022-12-14T09:48:48.671Z,28.35
2022-12-14T09:54:02.367Z,29.08
2022-12-14T09:59:05.546Z,27.85
2022-12-14T10:04:32.034Z,28.58
2022-12-14T10:10:00.518Z,29.65
2022-12-14T10:15:02.144Z,28.63
2022-12-14T10:20:18.245Z,29.63
2022-12-14T10:25:25.023Z,28.42
2022-12-14T10:30:26.724Z,29.60
2022-12-14T10:35:43.920Z,27.58
2022-12-14T10:40:50.593Z,29.42
2022-12-14T10:45:54.939Z,29.05
2022-12-14T10:51:08.037Z,30.02
2022-12-14T10:56:20.977Z,28.83
2022-12-14T11:01:22.724Z,29.20
2022-12-14T11:06:25.161Z,31.65
2022-12-14T11:11:29.175Z,28.30
2022-12-14T11:16:37.361Z,28.73
2022-12-14T11:21:39.388Z,27.50
2022-12-14T11:26:43.467Z,25.88
2022-12-14T11:31:48.024Z,27.95
2022-12-14T11:36:50.149Z,28.42
2022-12-14T11:41:57.910Z,27.58
2022-12-14T11:47:00.875Z,28.73
2022-12-14T11:52:05.287Z,29.42
2022-12-14T11:57:12.531Z,32.92
2022-12-14T12:02:18.936Z,28.38
2022-12-14T12:07:28.128Z,30.73
2022-12-14T12:12:33.647Z,30.58
2022-12-14T12:17:42.181Z,29.23
2022-12-14T12:22:48.073Z,21.65
2022-12-14T12:28:03.326Z,29.58
2022-12-14T12:33:14.042Z,29.85
2022-12-14T12:38:36.656Z,30.95
2022-12-14T12:43:49.881Z,29.83
2022-12-14T12:49:12.899Z,30.88
2022-12-14T12:54:23.971Z,31.13
2022-12-14T12:59:36.212Z,31.45
2022-12-14T13:04:40.967Z,32.92
2022-12-14T13:09:58.256Z,31.20
2022-12-14T13:20:19.798Z,32.28
2022-12-14T13:25:28.280Z,31.45
2022-12-14T13:30:57.297Z,31.38
2022-12-14T13:36:23.114Z,31.15
2022-12-14T13:41:34.868Z,32.30
2022-12-14T13:46:37.208Z,29.10
2022-12-14T13:51:40.527Z,32.78
2022-12-14T13:56:42.186Z,30.60
2022-12-14T14:01:46.688Z,32.03
2022-12-14T14:06:53.067Z,31.98
2022-12-14T14:12:00.475Z,29.35
2022-12-14T14:17:24.720Z,29.65
2022-12-14T14:22:29.615Z,28.67
2022-12-14T14:27:50.263Z,29.35
2022-12-14T14:33:19.848Z,26.27
2022-12-14T14:38:33.279Z,28.95
2022-12-14T14:43:46.764Z,29.88
2022-12-14T14:49:01.247Z,27.38
2022-12-14T14:54:53.989Z,28.73
2022-12-14T14:59:51.264Z,28.30
2022-12-14T15:04:57.025Z,30.30
2022-12-14T15:10:07.762Z,28.08
2022-12-14T15:15:20.231Z,26.85
2022-12-14T15:20:28.876Z,26.95
2022-12-14T15:25:31.679Z,25.70
2022-12-14T15:30:34.582Z,26.45
2022-12-14T15:35:39.232Z,25.58
2022-12-14T15:40:41.341Z,25.05
2022-12-14T15:45:45.960Z,26.58
2022-12-14T15:50:51.833Z,27.15
2022-12-14T15:56:00.317Z,27.65
2022-12-14T16:01:23.127Z,27.65
2022-12-14T16:06:27.495Z,26.48
2022-12-14T16:11:54.350Z,27.33
2022-12-14T16:16:56.436Z,27.20
2022-12-14T16:22:28.661Z,26.60
2022-12-14T16:27:30.967Z,24.73
2022-12-14T16:32:32.804Z,25.83
2022-12-14T16:37:34.803Z,25.77
2022-12-14T16:42:36.420Z,26.70
2022-12-14T16:48:23.093Z,28.83
2022-12-14T16:53:29.741Z,27.60
2022-12-14T16:58:32.519Z,26.77
2022-12-14T17:03:37.125Z,25.08
2022-12-14T17:08:39.112Z,26.42
2022-12-14T17:13:40.688Z,25.33
2022-12-14T17:18:42.527Z,26.77
2022-12-14T17:23:45.409Z,27.35
2022-12-14T17:28:46.990Z,26.20
2022-12-14T17:33:52.038Z,24.55
2022-12-14T17:38:53.685Z,26.90
2022-12-14T17:43:57.183Z,25.23
2022-12-14T17:49:04.521Z,25.10
2022-12-14T17:54:19.210Z,25.58
2022-12-14T17:59:20.798Z,25.60
2022-12-14T18:04:22.393Z,23.67
2022-12-14T18:09:23.962Z,27.50
2022-12-14T18:14:25.559Z,25.67
2022-12-14T18:19:27.118Z,26.83
2022-12-14T18:24:28.921Z,28.50
2022-12-14T18:29:30.515Z,27.83
2022-12-14T18:34:32.077Z,26.80
2022-12-14T18:39:33.678Z,28.05
2022-12-14T18:44:35.276Z,29.73
2022-12-14T18:49:37.159Z,29.50
2022-12-14T18:54:38.772Z,27.50
2022-12-14T18:59:42.607Z,29.90
2022-12-14T19:04:49.074Z,27.63
2022-12-14T19:09:50.771Z,28.77
2022-12-14T19:14:52.432Z,27.73
2022-12-14T19:19:54.048Z,27.65
2022-12-14T19:24:55.631Z,25.40
2022-12-14T19:29:57.263Z,26.98
2022-12-14T19:34:58.872Z,24.42
2022-12-14T19:40:02.447Z,24.90
2022-12-14T19:45:04.393Z,23.17
2022-12-14T19:50:06.967Z,23.08
2022-12-14T19:55:09.775Z,23.38
2022-12-14T20:00:11.715Z,21.92
2022-12-14T20:05:13.360Z,23.17
2022-12-14T20:10:14.941Z,24.02
2022-12-14T20:15:16.604Z,24.85
2022-12-14T20:20:19.187Z,27.70
2022-12-14T20:25:20.816Z,24.58
2022-12-14T20:30:22.385Z,23.38
2022-12-14T20:35:24.018Z,22.92
2022-12-14T20:40:25.966Z,22.95
2022-12-14T20:45:27.523Z,22.48
2022-12-14T20:50:29.088Z,22.98
2022-12-14T20:55:33.391Z,22.80
2022-12-14T21:00:37.284Z,23.50
2022-12-14T21:05:42.223Z,24.92
2022-12-14T21:10:46.157Z,26.02
2022-12-14T21:15:47.766Z,24.73
2022-12-14T21:20:49.371Z,23.67
2022-12-14T21:25:50.968Z,25.42
2022-12-14T21:30:52.603Z,24.15
2022-12-14T21:35:54.232Z,23.33
2022-12-14T21:41:14.441Z,24.08
2022-12-14T21:46:16.123Z,25.08
2022-12-14T21:51:19.117Z,24.33
2022-12-14T21:56:39.000Z,23.67
2022-12-14T22:01:40.862Z,21.70
2022-12-14T22:06:44.903Z,20.73
2022-12-14T22:11:47.034Z,20.90
2022-12-14T22:16:51.315Z,21.42
2022-12-14T22:21:53.127Z,23.50
2022-12-14T22:26:55.762Z,23.75
2022-12-14T22:31:57.710Z,24.50
2022-12-14T22:36:59.338Z,24.67
2022-12-14T22:42:01.014Z,25.38
2022-12-14T22:47:04.716Z,26.50
2022-12-14T22:52:06.270Z,27.58
2022-12-14T22:57:17.900Z,24.73
2022-12-14T23:02:19.708Z,25.17
2022-12-14T23:07:21.695Z,25.45
2022-12-14T23:12:41.830Z,27.63
2022-12-14T23:18:01.956Z,27.08
2022-12-14T23:23:26.272Z,26.90
2022-12-14T23:28:50.412Z,26.55
2022-12-14T23:34:10.636Z,26.83
2022-12-14T23:39:30.669Z,27.02
2022-12-14T23:44:50.792Z,25.35
2022-12-14T23:50:10.956Z,29.00
2022-12-14T23:55:31.231Z,29.25
